createdAt,value
2017-05-23T00:01:35.165Z,7.10
2017-05-23T00:04:04.162Z,7.56
2017-05-23T00:06:33.953Z,7.60
2017-05-23T00:09:03.858Z,7.22
2017-05-23T00:11:33.712Z,7.20
2017-05-23T00:14:03.807Z,7.10
2017-05-23T00:16:33.585Z,8.00
2017-05-23T00:19:03.329Z,7.64
2017-05-23T00:22:51.453Z,9.28
2017-05-23T00:25:20.424Z,8.52
2017-05-23T00:27:50.267Z,8.62
2017-05-23T00:30:20.114Z,8.98
2017-05-23T00:32:49.846Z,8.62
2017-05-23T00:35:18.816Z,8.66
2017-05-23T00:37:48.549Z,8.18
2017-05-23T00:40:17.518Z,8.88
2017-05-23T00:42:47.302Z,12.08
2017-05-23T00:45:17.061Z,8.50
2017-05-23T00:47:46.786Z,9.60
2017-05-23T00:50:16.544Z,8.10
2017-05-23T00:52:46.475Z,8.82
2017-05-23T00:55:16.210Z,7.82
2017-05-23T00:57:45.197Z,7.28
2017-05-23T01:00:14.184Z,7.68
2017-05-23T01:02:43.955Z,8.82
2017-05-23T01:05:13.718Z,8.50
2017-05-23T01:07:43.467Z,8.70
2017-05-23T01:10:13.216Z,9.58
2017-05-23T01:12:42.150Z,9.12
2017-05-23T01:15:11.901Z,8.48
2017-05-23T01:17:40.880Z,8.86
2017-05-23T01:20:10.646Z,8.80
2017-05-23T01:22:40.418Z,9.78
2017-05-23T01:25:10.183Z,9.08
2017-05-23T01:27:39.930Z,9.60
2017-05-23T01:30:09.875Z,9.48
2017-05-23T01:32:39.657Z,9.38
2017-05-23T01:35:09.544Z,9.46
2017-05-23T01:37:39.646Z,9.94
2017-05-23T01:40:09.393Z,9.48
2017-05-23T01:42:39.121Z,9.00
2017-05-23T01:45:08.905Z,8.64
2017-05-23T01:47:38.722Z,10.42
2017-05-23T01:50:08.490Z,8.54
2017-05-23T01:52:38.249Z,9.90
2017-05-23T01:55:08.042Z,9.92
2017-05-23T01:57:38.131Z,9.52
2017-05-23T02:00:08.192Z,9.80
2017-05-23T02:02:37.962Z,10.72
2017-05-23T02:05:07.736Z,10.10
2017-05-23T02:07:37.521Z,9.76
2017-05-23T02:10:06.538Z,9.40
2017-05-23T02:12:36.242Z,9.94
2017-05-23T02:15:05.967Z,10.20
2017-05-23T02:17:35.685Z,10.92
2017-05-23T02:20:04.687Z,13.06
2017-05-23T02:22:34.502Z,10.76
2017-05-23T02:25:04.229Z,9.92
2017-05-23T02:27:34.014Z,10.80
2017-05-23T02:30:03.003Z,10.22
2017-05-23T02:32:32.737Z,10.90
2017-05-23T02:35:02.549Z,10.16
2017-05-23T02:37:32.288Z,10.70
2017-05-23T02:40:02.021Z,11.18
2017-05-23T02:42:31.872Z,9.88
2017-05-23T02:45:01.676Z,10.36
2017-05-23T02:47:31.409Z,10.48
2017-05-23T02:50:01.133Z,9.56
2017-05-23T02:52:30.886Z,9.42
2017-05-23T02:54:59.869Z,9.22
2017-05-23T02:57:29.640Z,9.46
2017-05-23T02:59:59.770Z,8.80
2017-05-23T03:02:28.716Z,9.18
2017-05-23T03:04:58.444Z,9.98
2017-05-23T03:07:28.197Z,10.54
2017-05-23T03:09:58.035Z,10.54
2017-05-23T03:12:26.991Z,9.92
2017-05-23T03:14:56.721Z,10.52
2017-05-23T03:17:25.674Z,10.14
2017-05-23T03:19:55.370Z,10.60
2017-05-23T03:22:25.142Z,10.64
2017-05-23T03:24:54.129Z,10.98
2017-05-23T03:27:23.850Z,10.92
2017-05-23T03:29:52.904Z,11.30
2017-05-23T03:32:23.137Z,11.80
2017-05-23T03:34:52.117Z,11.72
2017-05-23T03:37:21.877Z,11.54
2017-05-23T03:39:51.588Z,11.28
2017-05-23T03:42:35.913Z,10.46
2017-05-23T03:46:24.750Z,10.58
2017-05-23T03:48:53.724Z,10.40
2017-05-23T03:51:22.713Z,10.30
2017-05-23T03:53:51.706Z,9.58
2017-05-23T03:56:21.553Z,10.78
2017-05-23T03:58:51.589Z,9.28
2017-05-23T04:01:21.396Z,10.16
2017-05-23T04:03:51.151Z,9.52
2017-05-23T04:06:20.980Z,11.16
2017-05-23T04:08:50.724Z,10.36
2017-05-23T04:11:20.573Z,10.52
2017-05-23T04:13:50.857Z,10.80
2017-05-23T04:16:19.883Z,10.22
2017-05-23T04:18:49.609Z,9.50
2017-05-23T04:21:19.354Z,10.84
2017-05-23T04:23:49.149Z,9.96
2017-05-23T04:26:18.936Z,9.34
2017-05-23T04:28:47.960Z,10.66
2017-05-23T04:31:17.734Z,11.30
2017-05-23T04:33:48.294Z,9.38
2017-05-23T04:36:18.087Z,9.24
2017-05-23T04:38:47.853Z,9.18
2017-05-23T04:41:17.665Z,9.20
2017-05-23T04:43:47.388Z,10.52
2017-05-23T04:46:17.157Z,10.44
2017-05-23T04:48:46.906Z,9.56
2017-05-23T04:51:16.633Z,9.76
2017-05-23T04:53:46.377Z,9.56
2017-05-23T04:56:16.134Z,10.94
2017-05-23T04:58:45.888Z,10.90
2017-05-23T05:01:16.113Z,11.14
2017-05-23T05:03:46.063Z,11.00
2017-05-23T05:06:15.822Z,10.02
2017-05-23T05:08:45.590Z,9.26
2017-05-23T05:11:15.342Z,9.42
2017-05-23T05:13:45.106Z,8.04
2017-05-23T05:16:14.869Z,7.98
2017-05-23T05:18:43.890Z,7.72
2017-05-23T05:21:13.281Z,7.82
2017-05-23T05:23:43.030Z,7.36
2017-05-23T05:26:12.816Z,6.94
2017-05-23T05:28:42.589Z,7.78
2017-05-23T05:31:12.496Z,8.24
2017-05-23T05:33:43.207Z,7.50
2017-05-23T05:36:13.365Z,7.08
2017-05-23T05:38:43.175Z,7.18
2017-05-23T05:41:13.015Z,7.56
2017-05-23T05:43:41.997Z,8.06
2017-05-23T05:46:11.906Z,8.02
2017-05-23T05:48:41.878Z,7.36
2017-05-23T05:51:11.793Z,7.20
2017-05-23T05:53:41.537Z,8.38
2017-05-23T05:56:11.402Z,7.16
2017-05-23T05:58:41.218Z,7.06
2017-05-23T06:01:11.022Z,6.58
2017-05-23T06:03:40.801Z,8.46
2017-05-23T06:06:10.629Z,6.24
2017-05-23T06:08:40.447Z,7.26
2017-05-23T06:11:10.274Z,6.74
2017-05-23T06:13:44.197Z,6.26
2017-05-23T06:16:13.998Z,6.86
2017-05-23T06:18:44.963Z,6.12
2017-05-23T06:21:14.734Z,8.00
2017-05-23T06:23:44.526Z,6.24
2017-05-23T06:26:14.302Z,5.92
2017-05-23T06:28:44.565Z,5.74
2017-05-23T06:31:14.375Z,5.88
2017-05-23T06:33:44.116Z,5.68
2017-05-23T06:36:14.914Z,5.54
2017-05-23T06:38:44.727Z,5.90
2017-05-23T06:41:14.518Z,4.76
2017-05-23T06:43:44.348Z,5.10
2017-05-23T06:46:14.204Z,5.40
2017-05-23T06:48:43.955Z,4.46
2017-05-23T06:51:13.730Z,4.88
2017-05-23T06:53:43.534Z,5.12
2017-05-23T06:56:13.326Z,5.44
2017-05-23T06:58:43.044Z,5.34
2017-05-23T07:01:12.892Z,5.08
2017-05-23T07:03:42.677Z,5.46
2017-05-23T07:06:12.463Z,5.36
2017-05-23T07:08:42.241Z,5.40
2017-05-23T07:11:12.431Z,5.72
2017-05-23T07:13:42.216Z,4.68
2017-05-23T07:16:12.029Z,4.32
2017-05-23T07:18:41.847Z,5.04
2017-05-23T07:21:11.684Z,4.30
2017-05-23T07:23:41.493Z,4.26
2017-05-23T07:26:11.379Z,4.44
2017-05-23T07:28:41.537Z,5.98
2017-05-23T07:31:11.433Z,5.36
2017-05-23T07:33:41.288Z,4.88
2017-05-23T07:36:11.131Z,4.84
2017-05-23T07:38:40.763Z,5.06
2017-05-23T07:41:10.647Z,8.26
2017-05-23T07:43:40.492Z,5.04
2017-05-23T07:46:10.442Z,5.94
2017-05-23T07:48:40.408Z,5.68
2017-05-23T07:51:16.751Z,5.60
2017-05-23T07:53:46.605Z,5.14
2017-05-23T07:56:16.460Z,6.32
2017-05-23T07:58:46.337Z,5.20
2017-05-23T08:01:16.221Z,4.56
2017-05-23T08:03:46.248Z,4.86
2017-05-23T08:06:16.192Z,4.90
2017-05-23T08:08:46.247Z,5.38
2017-05-23T08:11:16.086Z,4.48
2017-05-23T08:13:45.914Z,4.98
2017-05-23T08:16:16.524Z,5.14
2017-05-23T08:18:46.466Z,4.96
2017-05-23T08:21:16.397Z,4.58
2017-05-23T08:23:46.178Z,5.18
2017-05-23T08:26:15.990Z,5.64
2017-05-23T08:28:45.828Z,4.76
2017-05-23T08:31:15.667Z,4.70
2017-05-23T08:33:45.554Z,5.90
2017-05-23T08:36:15.131Z,4.88
2017-05-23T08:38:45.956Z,4.30
2017-05-23T08:41:15.741Z,5.54
2017-05-23T08:43:45.609Z,5.18
2017-05-23T08:46:15.512Z,4.70
2017-05-23T08:48:45.773Z,4.58
2017-05-23T08:51:15.656Z,5.48
2017-05-23T08:53:45.474Z,5.64
2017-05-23T08:56:15.389Z,5.40
2017-05-23T08:58:45.230Z,5.02
2017-05-23T09:01:15.352Z,5.18
2017-05-23T09:03:45.208Z,4.96
2017-05-23T09:06:15.504Z,5.36
2017-05-23T09:08:45.354Z,5.28
2017-05-23T09:11:15.153Z,5.04
2017-05-23T09:13:44.176Z,5.50
2017-05-23T09:16:13.992Z,4.26
2017-05-23T09:18:43.875Z,5.36
2017-05-23T09:21:13.712Z,4.36
2017-05-23T09:23:44.058Z,4.10
2017-05-23T09:26:18.049Z,5.02
2017-05-23T09:28:47.854Z,4.26
2017-05-23T09:31:17.743Z,4.70
2017-05-23T09:33:47.665Z,5.04
2017-05-23T09:36:17.442Z,5.18
2017-05-23T09:38:47.296Z,4.24
2017-05-23T09:41:17.126Z,4.82
2017-05-23T09:43:46.952Z,4.32
2017-05-23T09:46:16.845Z,4.58
2017-05-23T09:48:46.658Z,3.92
2017-05-23T09:51:16.468Z,4.84
2017-05-23T09:53:46.256Z,4.72
2017-05-23T09:56:16.105Z,4.88
2017-05-23T09:58:46.561Z,4.20
2017-05-23T10:01:16.401Z,4.48
2017-05-23T10:03:46.345Z,5.50
2017-05-23T10:06:16.180Z,5.14
2017-05-23T10:08:46.088Z,6.08
2017-05-23T10:11:16.321Z,4.84
2017-05-23T10:13:47.169Z,6.16
2017-05-23T10:16:17.646Z,5.38
2017-05-23T10:18:47.618Z,4.86
2017-05-23T10:21:17.454Z,4.98
2017-05-23T10:23:47.306Z,5.06
2017-05-23T10:26:17.080Z,4.58
2017-05-23T10:28:46.892Z,4.32
2017-05-23T10:31:16.751Z,4.52
2017-05-23T10:33:49.449Z,4.50
2017-05-23T10:36:19.318Z,4.92
2017-05-23T10:38:49.349Z,9.84
2017-05-23T10:41:20.155Z,4.52
2017-05-23T10:43:51.183Z,4.86
2017-05-23T10:46:21.506Z,4.70
2017-05-23T10:48:51.413Z,4.48
2017-05-23T10:51:21.262Z,4.80
2017-05-23T10:53:51.166Z,4.82
2017-05-23T10:56:21.067Z,4.38
2017-05-23T10:58:52.100Z,4.54
2017-05-23T11:01:22.098Z,4.86
2017-05-23T11:03:52.859Z,5.00
2017-05-23T11:06:22.819Z,5.74
2017-05-23T11:08:52.953Z,5.02
2017-05-23T11:11:22.249Z,5.68
2017-05-23T11:13:52.139Z,5.18
2017-05-23T11:16:22.121Z,8.64
2017-05-23T11:18:52.310Z,5.00
2017-05-23T11:21:22.652Z,5.32
2017-05-23T11:23:54.344Z,4.82
2017-05-23T11:26:24.259Z,5.00
2017-05-23T11:28:54.736Z,4.90
2017-05-23T11:31:24.507Z,5.76
2017-05-23T11:33:55.365Z,5.30
2017-05-23T11:36:26.794Z,5.70
2017-05-23T11:38:57.415Z,5.78
2017-05-23T11:41:27.258Z,5.10
2017-05-23T11:43:57.084Z,5.02
2017-05-23T11:46:26.962Z,5.26
2017-05-23T11:48:56.815Z,5.46
2017-05-23T11:51:57.981Z,5.08
2017-05-23T11:54:27.958Z,4.78
2017-05-23T11:57:00.611Z,5.00
2017-05-23T11:59:30.602Z,5.14
2017-05-23T12:02:00.395Z,5.24
2017-05-23T12:04:30.295Z,5.10
2017-05-23T12:07:00.246Z,4.70
2017-05-23T12:09:30.396Z,5.18
2017-05-23T12:12:00.969Z,4.36
2017-05-23T12:14:32.057Z,7.08
2017-05-23T12:17:01.947Z,6.78
2017-05-23T12:19:31.994Z,4.50
2017-05-23T12:22:01.933Z,5.14
2017-05-23T12:24:31.893Z,4.52
2017-05-23T12:27:01.806Z,4.60
2017-05-23T12:29:32.173Z,6.40
2017-05-23T12:32:02.079Z,4.52
2017-05-23T12:34:32.046Z,5.30
2017-05-23T12:37:02.840Z,4.48
2017-05-23T12:39:33.679Z,4.56
2017-05-23T12:42:04.714Z,4.80
2017-05-23T12:44:34.529Z,4.28
2017-05-23T12:47:05.285Z,3.98
2017-05-23T12:49:35.243Z,4.14
2017-05-23T12:52:06.092Z,4.72
2017-05-23T12:54:35.952Z,4.54
2017-05-23T12:57:05.928Z,4.60
2017-05-23T12:59:36.648Z,4.42
2017-05-23T13:02:06.464Z,4.30
2017-05-23T13:04:40.636Z,5.50
2017-05-23T13:07:10.553Z,4.54
2017-05-23T13:09:40.480Z,6.38
2017-05-23T13:12:10.426Z,3.92
2017-05-23T13:14:40.265Z,4.16
2017-05-23T13:17:11.266Z,4.02
2017-05-23T13:19:41.204Z,3.90
2017-05-23T13:22:11.284Z,5.08
2017-05-23T13:24:41.595Z,3.98
2017-05-23T13:27:11.973Z,3.20
2017-05-23T13:29:42.917Z,3.82
2017-05-23T13:32:43.383Z,3.06
2017-05-23T13:35:13.856Z,3.80
2017-05-23T13:37:43.632Z,4.06
2017-05-23T13:40:13.491Z,3.74
2017-05-23T13:42:44.345Z,3.50
2017-05-23T13:45:14.876Z,3.76
2017-05-23T13:47:44.769Z,3.96
2017-05-23T13:50:15.426Z,3.18
2017-05-23T13:52:46.226Z,5.04
2017-05-23T13:55:16.047Z,4.92
2017-05-23T13:57:47.750Z,3.88
2017-05-23T14:00:17.535Z,6.12
2017-05-23T14:02:48.380Z,4.34
2017-05-23T14:05:18.357Z,3.98
2017-05-23T14:07:48.556Z,4.62
2017-05-23T14:10:18.376Z,5.94
2017-05-23T14:12:48.298Z,4.40
2017-05-23T14:15:18.873Z,7.20
2017-05-23T14:17:49.095Z,3.46
2017-05-23T14:20:18.923Z,3.66
2017-05-23T14:22:48.809Z,3.60
2017-05-23T14:25:18.690Z,3.34
2017-05-23T14:27:49.279Z,2.94
2017-05-23T14:30:19.289Z,4.66
2017-05-23T14:32:49.769Z,4.10
2017-05-23T14:35:20.485Z,3.82
2017-05-23T14:37:50.412Z,3.82
2017-05-23T14:40:20.692Z,4.02
2017-05-23T14:42:51.714Z,4.34
2017-05-23T14:45:22.660Z,4.74
2017-05-23T14:47:53.685Z,4.00
2017-05-23T14:50:23.946Z,4.20
2017-05-23T14:52:54.552Z,4.92
2017-05-23T14:55:25.373Z,5.18
2017-05-23T14:57:56.946Z,5.80
2017-05-23T15:00:27.507Z,4.42
2017-05-23T15:02:57.498Z,7.50
2017-05-23T15:05:27.895Z,4.68
2017-05-23T15:08:00.179Z,5.00
2017-05-23T15:10:31.323Z,6.26
2017-05-23T15:13:01.369Z,5.20
2017-05-23T15:15:31.313Z,4.68
2017-05-23T15:18:01.984Z,5.44
2017-05-23T15:20:32.830Z,5.06
2017-05-23T15:23:02.669Z,6.84
2017-05-23T15:25:32.560Z,6.42
2017-05-23T15:28:02.483Z,7.70
2017-05-23T15:30:32.450Z,8.88
2017-05-23T15:33:02.410Z,7.84
2017-05-23T15:35:33.405Z,9.76
2017-05-23T15:38:04.282Z,9.62
2017-05-23T15:40:35.017Z,9.88
2017-05-23T15:43:05.695Z,11.14
2017-05-23T15:45:36.232Z,10.42
2017-05-23T15:48:06.038Z,10.08
2017-05-23T15:50:36.492Z,10.02
2017-05-23T15:53:06.335Z,11.52
2017-05-23T15:55:36.269Z,12.54
2017-05-23T15:58:06.958Z,12.04
2017-05-23T16:00:38.245Z,10.82
2017-05-23T16:03:08.090Z,11.44
2017-05-23T16:05:37.936Z,12.14
2017-05-23T16:08:07.887Z,10.06
2017-05-23T16:10:38.892Z,9.80
2017-05-23T16:13:08.982Z,9.02
2017-05-23T16:15:38.834Z,7.28
2017-05-23T16:18:11.548Z,7.92
2017-05-23T16:21:44.432Z,8.92
2017-05-23T16:24:14.788Z,7.40
2017-05-23T16:26:45.841Z,6.74
2017-05-23T16:29:15.868Z,6.78
2017-05-23T16:31:45.830Z,6.84
2017-05-23T16:34:15.797Z,6.88
2017-05-23T16:36:47.010Z,7.02
2017-05-23T16:39:19.268Z,5.44
2017-05-23T16:41:49.068Z,6.22
2017-05-23T16:44:20.471Z,6.00
2017-05-23T16:46:51.219Z,5.56
2017-05-23T16:49:21.079Z,5.98
2017-05-23T16:51:51.673Z,6.68
2017-05-23T16:57:21.719Z,6.80
2017-05-23T16:59:54.105Z,7.02
2017-05-23T17:02:25.631Z,6.04
2017-05-23T17:04:56.317Z,8.36
2017-05-23T17:07:27.615Z,6.92
2017-05-23T17:09:59.445Z,5.88
2017-05-23T17:12:31.716Z,4.74
2017-05-23T17:15:02.012Z,6.36
2017-05-23T17:17:35.567Z,4.80
2017-05-23T17:20:12.076Z,4.56
2017-05-23T17:22:51.517Z,4.72
2017-05-23T17:25:24.008Z,4.94
2017-05-23T17:27:58.282Z,5.80
2017-05-23T17:30:32.985Z,7.62
2017-05-23T17:33:05.914Z,8.64
2017-05-23T17:35:41.987Z,4.60
2017-05-23T17:38:22.779Z,4.52
2017-05-23T17:40:53.289Z,7.64
2017-05-23T17:43:30.099Z,5.16
2017-05-23T17:48:45.527Z,5.66
2017-05-23T17:51:18.863Z,5.52
2017-05-23T17:53:52.696Z,6.92
2017-05-23T17:56:27.253Z,5.88
2017-05-23T17:58:57.363Z,7.04
2017-05-23T18:01:27.850Z,7.28
2017-05-23T18:03:59.378Z,6.24
2017-05-23T18:06:32.392Z,7.44
2017-05-23T18:09:04.734Z,9.18
2017-05-23T18:11:37.775Z,6.82
2017-05-23T18:14:14.480Z,9.12
2017-05-23T18:16:45.681Z,8.20
2017-05-23T18:19:17.573Z,7.82
2017-05-23T18:22:20.623Z,6.84
2017-05-23T18:24:56.425Z,13.00
2017-05-23T18:27:31.200Z,11.70
2017-05-23T18:30:42.240Z,10.96
2017-05-23T18:33:14.967Z,11.00
2017-05-23T18:35:51.107Z,10.50
2017-05-23T18:38:22.980Z,11.56
2017-05-23T18:41:00.004Z,8.60
2017-05-23T18:43:31.479Z,9.54
2017-05-23T18:46:07.416Z,11.66
2017-05-23T18:48:50.236Z,10.74
2017-05-23T18:51:25.611Z,9.38
2017-05-23T18:54:00.278Z,10.36
2017-05-23T18:56:32.931Z,11.88
2017-05-23T18:59:12.894Z,11.88
2017-05-23T19:01:45.526Z,11.36
2017-05-23T19:04:17.410Z,13.34
2017-05-23T19:06:48.592Z,10.98
2017-05-23T19:09:27.005Z,10.62
2017-05-23T19:11:59.782Z,16.18
2017-05-23T19:14:38.042Z,8.92
2017-05-23T19:17:09.130Z,10.06
2017-05-23T19:19:42.157Z,10.06
2017-05-23T19:22:15.567Z,10.22
2017-05-23T19:24:49.510Z,12.66
2017-05-23T19:27:20.854Z,10.00
2017-05-23T19:29:51.323Z,8.24
2017-05-23T19:32:26.058Z,8.48
2017-05-23T19:34:59.008Z,8.16
2017-05-23T19:37:30.908Z,11.60
2017-05-23T19:42:43.928Z,9.68
2017-05-23T19:45:22.903Z,7.64
2017-05-23T19:47:56.459Z,10.20
2017-05-23T19:50:27.295Z,9.68
2017-05-23T19:52:57.264Z,10.38
2017-05-23T19:55:31.770Z,10.32
2017-05-23T19:58:02.579Z,6.84
2017-05-23T20:00:36.806Z,8.08
2017-05-23T20:03:09.913Z,11.00
2017-05-23T20:05:43.480Z,7.90
2017-05-23T20:08:15.603Z,6.68
2017-05-23T20:10:48.297Z,6.58
2017-05-23T20:13:24.700Z,7.16
2017-05-23T20:16:02.429Z,6.40
2017-05-23T20:18:32.741Z,6.14
2017-05-23T20:21:03.089Z,6.28
2017-05-23T20:23:34.762Z,8.24
2017-05-23T20:26:08.824Z,5.48
2017-05-23T20:28:38.840Z,6.38
2017-05-23T20:31:11.375Z,8.18
2017-05-23T20:33:41.364Z,4.82
2017-05-23T20:36:15.585Z,3.76
2017-05-23T20:38:47.147Z,6.90
2017-05-23T20:41:18.230Z,4.24
2017-05-23T20:43:50.485Z,3.72
2017-05-23T20:46:21.101Z,4.88
2017-05-23T20:48:51.885Z,7.96
2017-05-23T20:51:28.376Z,4.82
2017-05-23T20:53:59.411Z,5.64
2017-05-23T20:56:59.631Z,6.24
2017-05-23T20:59:30.454Z,3.16
2017-05-23T21:02:01.150Z,5.26
2017-05-23T21:04:30.844Z,6.04
2017-05-23T21:07:00.977Z,4.32
2017-05-23T21:09:32.530Z,6.04
2017-05-23T21:12:02.815Z,2.32
2017-05-23T21:14:33.357Z,3.44
2017-05-23T21:17:03.215Z,4.20
2017-05-23T21:19:33.681Z,6.84
2017-05-23T21:22:03.735Z,1.60
2017-05-23T21:25:52.776Z,3.52
2017-05-23T21:28:24.016Z,4.12
2017-05-23T21:30:54.524Z,5.68
2017-05-23T21:33:54.441Z,4.32
2017-05-23T21:36:24.875Z,2.14
2017-05-23T21:38:54.702Z,3.70
2017-05-23T21:41:24.617Z,3.00
2017-05-23T21:43:53.850Z,5.16
2017-05-23T21:46:24.476Z,3.24
2017-05-23T21:50:15.532Z,2.74
2017-05-23T21:52:47.357Z,3.34
2017-05-23T21:55:18.346Z,4.30
2017-05-23T21:57:48.111Z,5.08
2017-05-23T22:00:22.806Z,4.16
2017-05-23T22:02:52.618Z,3.68
2017-05-23T22:05:22.798Z,4.12
2017-05-23T22:07:54.029Z,3.56
2017-05-23T22:10:23.981Z,2.94
2017-05-23T22:12:55.489Z,2.24
2017-05-23T22:15:25.579Z,3.30
2017-05-23T22:17:55.369Z,5.14
2017-05-23T22:20:25.144Z,3.44
2017-05-23T22:22:54.939Z,5.78
2017-05-23T22:25:24.841Z,3.46
2017-05-23T22:27:54.664Z,1.94
2017-05-23T22:30:25.182Z,3.02
2017-05-23T22:32:55.005Z,3.48
2017-05-23T22:35:25.617Z,3.40
2017-05-23T22:38:10.973Z,3.48
2017-05-23T22:40:41.260Z,3.66
2017-05-23T22:44:30.454Z,3.30
2017-05-23T22:47:00.210Z,5.60
2017-05-23T22:49:30.054Z,2.16
2017-05-23T22:52:00.496Z,4.80
2017-05-23T22:54:30.282Z,3.12
2017-05-23T22:57:00.055Z,4.88
2017-05-23T22:59:29.904Z,3.02
2017-05-23T23:01:59.691Z,3.66
2017-05-23T23:04:29.495Z,6.94
2017-05-23T23:06:59.314Z,3.28
2017-05-23T23:09:28.355Z,2.84
2017-05-23T23:11:58.166Z,4.90
2017-05-23T23:14:28.021Z,3.72
2017-05-23T23:16:57.810Z,4.60
2017-05-23T23:19:27.648Z,5.18
2017-05-23T23:21:57.782Z,4.48
2017-05-23T23:24:26.829Z,5.96
2017-05-23T23:26:55.849Z,2.28
2017-05-23T23:29:26.516Z,4.24
2017-05-23T23:31:55.544Z,4.92
2017-05-23T23:34:24.510Z,3.98
2017-05-23T23:36:54.264Z,7.60
2017-05-23T23:39:24.080Z,3.58
2017-05-23T23:44:34.013Z,5.32
2017-05-23T23:47:03.093Z,4.04
2017-05-23T23:49:32.045Z,3.22
2017-05-23T23:52:01.860Z,4.62
2017-05-23T23:55:34.387Z,3.86
2017-05-23T23:58:04.133Z,3.12
